createdAt,value
2022-10-08T00:57:43.804Z,19.50
2022-10-08T01:00:54.743Z,21.77
2022-10-08T01:04:07.827Z,18.87
2022-10-08T01:07:26.509Z,19.90
2022-10-08T01:10:48.459Z,17.47
2022-10-08T01:14:07.440Z,11.97
2022-10-08T01:17:27.542Z,10.87
2022-10-08T01:20:45.430Z,13.10
2022-10-08T01:24:16.347Z,12.40
2022-10-08T01:27:32.395Z,9.83
2022-10-08T01:30:52.489Z,9.23
2022-10-08T01:34:06.153Z,10.63
2022-10-08T01:37:21.631Z,10.20
2022-10-08T01:40:36.639Z,8.87
2022-10-08T01:43:54.183Z,9.17
2022-10-08T01:47:11.710Z,9.43
2022-10-08T01:50:27.184Z,8.70
2022-10-08T01:53:49.440Z,6.97
2022-10-08T01:57:04.186Z,8.47
2022-10-08T02:00:17.182Z,8.40
2022-10-08T02:03:33.620Z,7.67
2022-10-08T02:06:49.381Z,6.63
2022-10-08T02:10:06.575Z,5.73
2022-10-08T02:13:20.319Z,4.20
2022-10-08T02:16:43.006Z,5.47
2022-10-08T02:19:59.786Z,5.90
2022-10-08T02:23:14.432Z,7.47
2022-10-08T02:26:30.891Z,4.67
2022-10-08T02:29:47.654Z,4.93
2022-10-08T02:33:03.148Z,4.43
2022-10-08T02:36:18.487Z,4.77
2022-10-08T02:39:32.323Z,5.60
2022-10-08T02:42:50.029Z,6.33
2022-10-08T02:46:05.230Z,5.40
2022-10-08T02:49:20.604Z,4.83
2022-10-08T02:52:36.965Z,5.23
2022-10-08T02:56:00.369Z,5.60
2022-10-08T02:59:12.138Z,5.17
2022-10-08T03:02:29.804Z,6.83
2022-10-08T03:05:45.259Z,4.87
2022-10-08T03:08:59.214Z,4.40
2022-10-08T03:12:12.565Z,3.93
2022-10-08T03:15:23.718Z,5.40
2022-10-08T03:18:34.456Z,5.13
2022-10-08T03:21:48.305Z,5.03
2022-10-08T03:24:58.465Z,6.50
2022-10-08T03:28:08.578Z,5.83
2022-10-08T03:31:18.731Z,8.00
2022-10-08T03:34:36.496Z,5.30
2022-10-08T03:37:47.832Z,6.97
2022-10-08T03:41:01.445Z,5.10
2022-10-08T03:44:17.398Z,5.07
2022-10-08T03:47:29.513Z,4.60
2022-10-08T03:50:39.552Z,5.33
2022-10-08T03:53:53.339Z,4.50
2022-10-08T03:57:07.233Z,5.60
2022-10-08T04:00:20.604Z,6.60
2022-10-08T04:03:32.051Z,12.07
2022-10-08T04:06:42.107Z,6.17
2022-10-08T04:09:55.541Z,8.50
2022-10-08T04:13:09.200Z,5.30
2022-10-08T04:16:22.397Z,5.50
2022-10-08T04:19:35.539Z,7.40
2022-10-08T04:22:48.400Z,7.57
2022-10-08T04:26:03.064Z,6.20
2022-10-08T04:29:13.733Z,6.20
2022-10-08T04:32:26.662Z,6.13
2022-10-08T04:35:39.938Z,4.70
2022-10-08T04:38:51.291Z,5.83
2022-10-08T04:42:03.344Z,4.80
2022-10-08T04:45:22.128Z,5.43
2022-10-08T04:48:32.684Z,5.80
2022-10-08T04:51:45.940Z,5.20
2022-10-08T04:54:56.431Z,5.00
2022-10-08T04:58:10.289Z,4.87
2022-10-08T05:01:21.348Z,6.17
2022-10-08T05:04:34.527Z,4.83
2022-10-08T05:07:44.913Z,4.33
2022-10-08T05:11:02.400Z,4.30
2022-10-08T05:14:14.216Z,4.30
2022-10-08T05:17:24.387Z,5.33
2022-10-08T05:20:39.651Z,5.20
2022-10-08T05:23:55.134Z,5.63
2022-10-08T05:27:06.782Z,4.70
2022-10-08T05:30:21.876Z,4.50
2022-10-08T05:33:32.198Z,51.23
2022-10-08T05:36:42.773Z,27.53
2022-10-08T05:39:52.873Z,13.83
2022-10-08T05:43:09.144Z,12.37
2022-10-08T05:46:20.806Z,10.00
2022-10-08T05:49:33.433Z,5.20
2022-10-08T05:52:44.133Z,4.60
2022-10-08T05:56:01.866Z,6.20
2022-10-08T05:59:17.101Z,4.20
2022-10-08T06:02:28.843Z,5.00
2022-10-08T06:05:41.894Z,4.30
2022-10-08T06:08:54.968Z,4.40
2022-10-08T06:12:09.897Z,4.63
2022-10-08T06:15:19.976Z,7.73
2022-10-08T06:18:33.151Z,7.57
2022-10-08T06:21:43.577Z,10.97
2022-10-08T06:24:53.688Z,100.07
2022-10-08T06:28:06.178Z,43.23
2022-10-08T06:31:20.026Z,55.27
2022-10-08T06:34:37.481Z,52.43
2022-10-08T06:37:49.005Z,28.50
2022-10-08T06:41:01.462Z,9.93
2022-10-08T06:44:13.399Z,5.53
2022-10-08T06:47:23.449Z,5.73
2022-10-08T06:50:38.257Z,5.40
2022-10-08T06:53:55.215Z,24.07
2022-10-08T06:57:05.426Z,12.00
2022-10-08T07:00:23.241Z,14.93
2022-10-08T07:03:35.473Z,11.77
2022-10-08T07:06:46.851Z,8.37
2022-10-08T07:09:58.975Z,5.63
2022-10-08T07:13:09.049Z,4.33
2022-10-08T07:16:21.792Z,4.20
2022-10-08T07:19:31.893Z,3.83
2022-10-08T07:23:04.302Z,3.47
2022-10-08T07:26:23.149Z,6.53
2022-10-08T07:29:36.699Z,13.07
2022-10-08T07:32:53.096Z,11.37
2022-10-08T07:36:11.546Z,8.23
2022-10-08T07:39:23.088Z,17.43
2022-10-08T07:42:33.160Z,14.97
2022-10-08T07:45:51.162Z,10.70
2022-10-08T07:49:04.731Z,18.27
2022-10-08T07:52:14.847Z,11.43
2022-10-08T07:55:28.863Z,20.33
2022-10-08T07:58:39.394Z,7.43
2022-10-08T08:01:49.827Z,5.13
2022-10-08T08:05:00.154Z,2.17
2022-10-08T08:08:11.208Z,3.60
2022-10-08T08:11:24.713Z,2.30
2022-10-08T08:14:34.754Z,4.33
2022-10-08T08:17:46.912Z,3.20
2022-10-08T08:21:00.643Z,2.50
2022-10-08T08:24:12.732Z,1.87
2022-10-08T08:27:26.830Z,2.43
2022-10-08T08:30:37.208Z,1.90
2022-10-08T08:33:51.065Z,1.90
2022-10-08T08:37:01.423Z,1.90
2022-10-08T08:40:12.073Z,2.00
2022-10-08T08:43:23.825Z,2.27
2022-10-08T08:46:43.171Z,1.93
2022-10-08T08:49:55.633Z,2.60
2022-10-08T08:53:09.407Z,2.20
2022-10-08T08:56:25.421Z,2.27
2022-10-08T08:59:46.735Z,2.20
2022-10-08T09:03:01.541Z,2.20
2022-10-08T09:06:18.247Z,1.83
2022-10-08T09:09:34.859Z,1.40
2022-10-08T09:12:45.597Z,1.53
2022-10-08T09:15:57.847Z,1.80
2022-10-08T09:19:08.171Z,1.30
2022-10-08T09:22:25.866Z,1.33
2022-10-08T09:25:38.441Z,1.53
2022-10-08T09:28:52.470Z,1.30
2022-10-08T09:32:19.445Z,1.60
2022-10-08T09:35:37.449Z,1.60
2022-10-08T09:38:47.664Z,1.60
2022-10-08T09:42:13.988Z,1.80
2022-10-08T09:45:35.445Z,1.80
2022-10-08T09:48:48.907Z,1.50
2022-10-08T09:52:02.890Z,1.70
2022-10-08T09:55:33.243Z,1.63
2022-10-08T09:58:53.441Z,1.80
2022-10-08T10:02:07.835Z,1.77
2022-10-08T10:05:24.217Z,1.67
2022-10-08T10:08:48.729Z,1.70
2022-10-08T10:12:05.000Z,2.00
2022-10-08T10:15:21.428Z,1.83
2022-10-08T10:18:36.980Z,7.90
2022-10-08T10:21:58.168Z,3.30
2022-10-08T10:25:19.280Z,4.27
2022-10-08T10:28:39.830Z,2.90
2022-10-08T10:31:58.175Z,1.80
2022-10-08T10:35:16.481Z,1.83
2022-10-08T10:38:30.665Z,1.60
2022-10-08T10:41:49.994Z,1.43
2022-10-08T10:45:16.111Z,1.97
2022-10-08T10:48:26.168Z,1.77
2022-10-08T10:51:52.095Z,1.90
2022-10-08T10:55:22.005Z,1.80
2022-10-08T10:58:42.554Z,2.00
2022-10-08T11:02:01.610Z,2.07
2022-10-08T11:05:18.377Z,2.63
2022-10-08T11:08:39.239Z,2.13
2022-10-08T11:12:04.561Z,1.90
2022-10-08T11:15:24.377Z,1.50
2022-10-08T11:18:43.601Z,1.63
2022-10-08T11:22:00.866Z,1.93
2022-10-08T11:25:24.757Z,1.87
2022-10-08T11:28:47.365Z,1.60
2022-10-08T11:31:58.360Z,1.60
2022-10-08T11:35:22.810Z,1.80
2022-10-08T11:38:39.966Z,2.10
2022-10-08T11:42:02.365Z,1.80
2022-10-08T11:45:34.259Z,2.00
2022-10-08T11:48:46.822Z,1.50
2022-10-08T11:52:14.909Z,1.50
2022-10-08T11:55:29.003Z,1.90
2022-10-08T11:58:39.234Z,2.13
2022-10-08T12:01:56.562Z,1.97
2022-10-08T12:05:19.254Z,1.77
2022-10-08T12:08:53.721Z,1.80
2022-10-08T12:12:16.913Z,1.63
2022-10-08T12:15:51.972Z,2.00
2022-10-08T12:19:27.868Z,1.97
2022-10-08T12:22:45.323Z,2.00
2022-10-08T12:26:10.302Z,2.23
2022-10-08T12:29:51.383Z,2.20
2022-10-08T12:33:01.591Z,2.10
2022-10-08T12:36:21.158Z,2.20
2022-10-08T12:39:38.291Z,2.30
2022-10-08T12:42:54.505Z,2.20
2022-10-08T12:46:22.041Z,1.80
2022-10-08T12:49:36.874Z,2.30
2022-10-08T12:52:48.486Z,2.13
2022-10-08T12:56:00.100Z,2.00
2022-10-08T12:59:11.980Z,2.33
2022-10-08T13:02:27.880Z,2.03
2022-10-08T13:05:43.296Z,2.00
2022-10-08T13:08:56.975Z,2.10
2022-10-08T13:12:07.147Z,2.13
2022-10-08T13:15:25.245Z,2.30
2022-10-08T13:18:39.524Z,2.70
2022-10-08T13:21:56.927Z,2.43
2022-10-08T13:25:33.593Z,3.23
2022-10-08T13:28:59.914Z,4.07
2022-10-08T13:32:21.068Z,1.90
2022-10-08T13:35:34.452Z,2.00
2022-10-08T13:38:49.110Z,1.97
2022-10-08T13:42:03.158Z,2.30
2022-10-08T13:45:18.175Z,2.20
2022-10-08T13:48:28.621Z,2.17
2022-10-08T13:51:38.702Z,2.03
2022-10-08T13:54:51.445Z,2.13
2022-10-08T13:58:03.469Z,2.10
2022-10-08T14:01:14.898Z,4.87
2022-10-08T14:04:25.021Z,6.40
2022-10-08T14:07:37.186Z,7.67
2022-10-08T14:10:47.463Z,3.23
2022-10-08T14:13:59.855Z,2.10
2022-10-08T14:17:14.258Z,1.47
2022-10-08T14:20:25.643Z,1.60
2022-10-08T14:23:36.445Z,1.70
2022-10-08T14:26:46.986Z,1.40
2022-10-08T14:29:57.160Z,1.80
2022-10-08T14:33:11.884Z,1.33
2022-10-08T14:36:25.257Z,1.80
2022-10-08T14:39:35.605Z,1.73
2022-10-08T14:42:58.028Z,1.77
2022-10-08T14:46:08.489Z,1.90
2022-10-08T14:49:24.116Z,2.03
2022-10-08T14:52:35.101Z,1.67
2022-10-08T14:56:07.850Z,2.30
2022-10-08T14:59:16.413Z,1.47
2022-10-08T15:02:26.532Z,1.80
2022-10-08T15:05:37.933Z,1.80
2022-10-08T15:08:48.014Z,1.53
2022-10-08T15:11:58.146Z,3.23
2022-10-08T15:15:08.898Z,4.73
2022-10-08T15:18:19.078Z,4.33
2022-10-08T15:21:30.498Z,3.47
2022-10-08T15:24:40.631Z,4.10
2022-10-08T15:27:50.647Z,2.07
2022-10-08T15:31:03.763Z,2.23
2022-10-08T15:35:17.668Z,2.30
2022-10-08T15:38:31.563Z,3.27
2022-10-08T15:41:45.611Z,2.77
2022-10-08T15:44:58.138Z,5.63
2022-10-08T15:48:11.396Z,5.13
2022-10-08T15:51:21.561Z,3.27
2022-10-08T15:54:35.801Z,3.83
2022-10-08T15:57:45.975Z,5.57
2022-10-08T16:00:56.068Z,3.93
2022-10-08T16:04:06.274Z,2.90
2022-10-08T16:07:16.929Z,2.97
2022-10-08T16:10:28.740Z,3.27
2022-10-08T16:13:44.503Z,2.87
2022-10-08T16:16:57.469Z,3.37
2022-10-08T16:20:10.919Z,4.00
2022-10-08T16:23:20.991Z,3.90
2022-10-08T16:26:36.080Z,3.47
2022-10-08T16:29:46.537Z,5.07
2022-10-08T16:32:56.926Z,5.13
2022-10-08T16:36:10.474Z,4.10
2022-10-08T16:39:24.364Z,5.60
2022-10-08T16:42:35.793Z,3.20
2022-10-08T16:45:45.929Z,3.33
2022-10-08T16:49:00.096Z,2.60
2022-10-08T16:52:13.602Z,3.20
2022-10-08T16:55:23.741Z,3.50
2022-10-08T16:58:35.206Z,3.07
2022-10-08T17:01:46.749Z,3.97
2022-10-08T17:04:56.899Z,4.20
2022-10-08T17:08:07.013Z,3.17
2022-10-08T17:11:19.217Z,11.83
2022-10-08T17:14:33.178Z,7.03
2022-10-08T17:17:43.307Z,10.03
2022-10-08T17:20:55.917Z,9.13
2022-10-08T17:24:06.342Z,16.57
2022-10-08T17:27:16.461Z,17.07
2022-10-08T17:30:28.090Z,13.30
2022-10-08T17:33:38.333Z,20.97
2022-10-08T17:36:48.430Z,14.40
2022-10-08T17:39:58.718Z,12.53
2022-10-08T17:43:10.708Z,24.30
2022-10-08T17:46:24.495Z,47.37
2022-10-08T17:49:34.818Z,40.63
2022-10-08T17:52:45.322Z,12.57
2022-10-08T17:56:00.277Z,5.50
2022-10-08T17:59:13.413Z,3.40
2022-10-08T18:02:25.291Z,3.63
2022-10-08T18:05:35.570Z,29.60
2022-10-08T18:08:45.742Z,10.83
2022-10-08T18:11:55.864Z,5.30
2022-10-08T18:15:09.721Z,19.10
2022-10-08T18:18:21.281Z,13.73
2022-10-08T18:21:31.415Z,14.33
2022-10-08T18:24:41.561Z,8.20
2022-10-08T18:27:51.720Z,31.93
2022-10-08T18:31:05.129Z,45.90
2022-10-08T18:34:18.865Z,17.57
2022-10-08T18:37:31.903Z,14.70
2022-10-08T18:40:42.080Z,10.53
2022-10-08T18:43:52.708Z,6.93
2022-10-08T18:47:05.350Z,5.53
2022-10-08T18:50:20.181Z,11.47
2022-10-08T18:53:32.292Z,7.27
2022-10-08T18:56:42.639Z,6.87
2022-10-08T18:59:52.816Z,2.90
2022-10-08T19:03:04.806Z,18.90
2022-10-08T19:06:17.150Z,27.87
2022-10-08T19:09:30.116Z,14.90
2022-10-08T19:12:40.274Z,18.93
2022-10-08T19:15:50.416Z,19.20
2022-10-08T19:19:02.690Z,13.93
2022-10-08T19:22:14.204Z,9.93
2022-10-08T19:25:26.588Z,8.83
2022-10-08T19:28:38.437Z,9.33
2022-10-08T19:31:50.799Z,5.60
2022-10-08T19:35:01.231Z,5.77
2022-10-08T19:38:14.827Z,16.17
2022-10-08T19:41:29.143Z,7.10
2022-10-08T19:44:39.204Z,5.20
2022-10-08T19:47:51.799Z,6.27
2022-10-08T19:51:05.444Z,4.50
2022-10-08T19:54:18.447Z,3.43
2022-10-08T19:57:28.653Z,4.37
2022-10-08T20:00:43.630Z,6.60
2022-10-08T20:03:55.841Z,10.07
2022-10-08T20:07:06.024Z,12.70
2022-10-08T20:10:17.523Z,15.10
2022-10-08T20:13:27.696Z,7.43
2022-10-08T20:16:40.546Z,9.00
2022-10-08T20:19:50.843Z,8.20
2022-10-08T20:23:03.328Z,9.23
2022-10-08T20:26:20.050Z,8.47
2022-10-08T20:29:31.260Z,14.83
2022-10-08T20:32:41.831Z,8.00
2022-10-08T20:35:51.868Z,5.27
2022-10-08T20:39:08.503Z,5.07
2022-10-08T20:42:19.958Z,4.80
2022-10-08T20:45:30.051Z,3.37
2022-10-08T20:48:42.606Z,3.60
2022-10-08T20:51:55.569Z,4.17
2022-10-08T20:55:09.726Z,5.43
2022-10-08T20:58:21.140Z,4.70
2022-10-08T21:01:33.011Z,16.90
2022-10-08T21:04:43.223Z,6.70
2022-10-08T21:07:53.414Z,4.50
2022-10-08T21:11:04.638Z,2.93
2022-10-08T21:14:21.555Z,2.83
2022-10-08T21:17:31.694Z,4.60
2022-10-08T21:20:41.760Z,3.50
2022-10-08T21:23:52.081Z,3.23
2022-10-08T21:27:02.124Z,2.30
2022-10-08T21:30:14.290Z,2.20
2022-10-08T21:33:26.915Z,2.90
2022-10-08T21:36:41.730Z,2.57
2022-10-08T21:39:54.560Z,2.13
2022-10-08T21:43:04.772Z,2.80
2022-10-08T21:46:18.557Z,2.80
2022-10-08T21:49:31.840Z,3.10
2022-10-08T21:52:41.891Z,2.97
2022-10-08T21:55:56.734Z,2.77
